createdAt,value
2022-12-19T00:02:27.288Z,23.65
2022-12-19T00:04:59.658Z,24.80
2022-12-19T00:07:32.326Z,20.23
2022-12-19T00:10:04.880Z,18.90
2022-12-19T00:12:37.139Z,12.82
2022-12-19T00:15:09.591Z,11.30
2022-12-19T00:17:42.301Z,11.38
2022-12-19T00:20:15.332Z,9.70
2022-12-19T00:22:50.992Z,8.05
2022-12-19T00:25:23.027Z,8.20
2022-12-19T00:27:56.333Z,7.22
2022-12-19T00:30:28.451Z,7.25
2022-12-19T00:33:03.282Z,6.37
2022-12-19T00:35:35.569Z,8.57
2022-12-19T00:38:07.578Z,18.85
2022-12-19T00:40:40.508Z,21.08
2022-12-19T00:43:12.771Z,22.05
2022-12-19T00:45:47.578Z,21.50
2022-12-19T00:48:19.892Z,21.67
2022-12-19T00:51:03.204Z,23.67
2022-12-19T00:53:36.744Z,21.00
2022-12-19T00:56:13.743Z,22.30
2022-12-19T00:58:47.288Z,22.67
2022-12-19T01:01:29.398Z,23.75
2022-12-19T01:04:27.623Z,22.05
2022-12-19T01:06:58.018Z,24.25
2022-12-19T01:09:37.417Z,24.13
2022-12-19T01:12:30.459Z,24.47
2022-12-19T01:15:04.394Z,23.33
2022-12-19T01:17:44.403Z,21.23
2022-12-19T01:20:26.688Z,22.58
2022-12-19T01:23:02.880Z,24.15
2022-12-19T01:25:37.113Z,23.57
2022-12-19T01:28:15.779Z,20.85
2022-12-19T01:30:48.364Z,23.50
2022-12-19T01:33:21.917Z,22.92
2022-12-19T01:35:54.459Z,24.17
2022-12-19T01:38:26.374Z,24.40
2022-12-19T01:40:59.052Z,25.00
2022-12-19T01:44:07.981Z,23.33
2022-12-19T01:46:48.720Z,24.05
2022-12-19T01:49:31.860Z,23.80
2022-12-19T01:52:08.471Z,23.97
2022-12-19T01:54:43.370Z,23.08
2022-12-19T01:57:18.717Z,23.23
2022-12-19T01:59:55.383Z,18.88
2022-12-19T02:02:44.361Z,13.60
2022-12-19T02:05:16.383Z,20.27
2022-12-19T02:07:50.696Z,20.75
2022-12-19T02:10:22.954Z,9.40
2022-12-19T02:12:55.886Z,4.38
2022-12-19T02:15:35.496Z,4.10
2022-12-19T02:18:21.036Z,4.03
2022-12-19T02:21:13.660Z,3.65
2022-12-19T02:24:18.859Z,4.57
2022-12-19T02:27:02.329Z,3.58
2022-12-19T02:30:35.704Z,3.60
2022-12-19T02:33:41.549Z,3.83
2022-12-19T02:36:27.194Z,3.92
2022-12-19T02:39:10.880Z,18.45
2022-12-19T02:41:51.485Z,6.93
2022-12-19T02:44:36.530Z,3.97
2022-12-19T02:47:11.598Z,4.10
2022-12-19T02:49:44.133Z,3.58
2022-12-19T02:52:20.761Z,3.40
2022-12-19T02:55:01.146Z,3.67
2022-12-19T02:58:08.605Z,3.88
2022-12-19T03:00:55.704Z,3.80
2022-12-19T03:03:47.337Z,3.67
2022-12-19T03:06:29.586Z,3.03
2022-12-19T03:09:20.409Z,3.58
2022-12-19T03:12:03.145Z,3.42
2022-12-19T03:14:37.293Z,3.57
2022-12-19T03:17:09.446Z,3.90
2022-12-19T03:19:42.666Z,3.83
2022-12-19T03:22:14.755Z,3.15
2022-12-19T03:24:47.846Z,3.00
2022-12-19T03:27:27.500Z,3.50
2022-12-19T03:30:11.985Z,3.08
2022-12-19T03:32:46.819Z,3.85
2022-12-19T03:35:23.485Z,3.35
2022-12-19T03:37:58.687Z,3.05
2022-12-19T03:40:33.701Z,3.17
2022-12-19T03:43:11.677Z,3.22
2022-12-19T03:46:10.505Z,3.50
2022-12-19T03:48:54.154Z,3.90
2022-12-19T03:51:40.190Z,3.58
2022-12-19T03:54:27.892Z,3.63
2022-12-19T03:57:26.141Z,3.55
2022-12-19T04:00:09.260Z,3.50
2022-12-19T04:02:52.349Z,3.40
2022-12-19T04:05:27.698Z,3.60
2022-12-19T04:08:05.480Z,2.93
2022-12-19T04:10:47.658Z,3.55
2022-12-19T04:13:28.142Z,3.42
2022-12-19T04:16:13.402Z,3.88
2022-12-19T04:18:53.248Z,3.65
2022-12-19T04:21:32.862Z,3.23
2022-12-19T04:24:19.026Z,3.25
2022-12-19T04:26:54.687Z,3.38
2022-12-19T04:29:28.675Z,3.58
2022-12-19T04:32:04.443Z,3.28
2022-12-19T04:34:40.201Z,3.23
2022-12-19T04:37:15.081Z,3.60
2022-12-19T04:39:48.317Z,3.38
2022-12-19T04:42:20.221Z,4.00
2022-12-19T04:44:52.930Z,3.30
2022-12-19T04:47:25.664Z,3.77
2022-12-19T04:49:57.585Z,4.90
2022-12-19T04:52:30.349Z,4.05
2022-12-19T04:55:02.713Z,3.28
2022-12-19T04:57:35.285Z,11.63
2022-12-19T05:00:10.415Z,6.33
2022-12-19T05:02:42.835Z,3.40
2022-12-19T05:05:14.900Z,3.75
2022-12-19T05:07:47.699Z,3.97
2022-12-19T05:10:19.816Z,12.98
2022-12-19T05:12:54.816Z,20.10
2022-12-19T05:15:26.678Z,7.80
2022-12-19T05:17:59.006Z,4.63
2022-12-19T05:20:30.907Z,4.15
2022-12-19T05:23:06.658Z,3.85
2022-12-19T05:25:42.138Z,4.33
2022-12-19T05:28:18.132Z,4.07
2022-12-19T05:30:52.523Z,3.85
2022-12-19T05:33:25.432Z,4.18
2022-12-19T05:35:58.086Z,4.75
2022-12-19T05:38:31.302Z,5.20
2022-12-19T05:41:20.420Z,4.47
2022-12-19T05:43:55.830Z,14.45
2022-12-19T05:46:27.857Z,5.80
2022-12-19T05:49:00.599Z,4.32
2022-12-19T05:51:32.594Z,4.13
2022-12-19T05:54:05.800Z,3.97
2022-12-19T05:56:37.707Z,4.30
2022-12-19T05:59:11.677Z,4.22
2022-12-19T06:01:43.718Z,4.15
2022-12-19T06:07:09.769Z,3.58
2022-12-19T06:09:42.023Z,3.88
2022-12-19T06:12:13.893Z,3.90
2022-12-19T06:14:46.646Z,4.05
2022-12-19T06:17:18.957Z,4.37
2022-12-19T06:19:51.657Z,3.92
2022-12-19T06:22:24.050Z,4.35
2022-12-19T06:24:56.766Z,4.20
2022-12-19T06:27:28.710Z,4.00
2022-12-19T06:30:23.553Z,4.80
2022-12-19T06:32:56.308Z,4.28
2022-12-19T06:35:28.870Z,4.18
2022-12-19T06:38:01.632Z,4.20
2022-12-19T06:40:52.871Z,4.72
2022-12-19T06:43:26.222Z,4.57
2022-12-19T06:45:59.000Z,5.03
2022-12-19T06:48:31.351Z,5.05
2022-12-19T06:53:57.399Z,5.22
2022-12-19T06:56:36.461Z,5.57
2022-12-19T06:59:13.278Z,5.00
2022-12-19T07:01:55.136Z,5.03
2022-12-19T07:04:38.714Z,5.88
2022-12-19T07:07:11.957Z,5.05
2022-12-19T07:09:44.504Z,11.70
2022-12-19T07:12:16.408Z,16.63
2022-12-19T07:14:53.602Z,17.67
2022-12-19T07:17:26.950Z,18.85
2022-12-19T07:19:59.944Z,18.02
2022-12-19T07:22:34.348Z,21.80
2022-12-19T07:25:08.035Z,21.52
2022-12-19T07:27:40.035Z,21.10
2022-12-19T07:30:13.376Z,20.77
2022-12-19T07:32:45.262Z,21.75
2022-12-19T07:35:18.238Z,20.73
2022-12-19T07:37:51.468Z,21.42
2022-12-19T07:40:23.584Z,21.38
2022-12-19T07:42:59.720Z,19.50
2022-12-19T07:45:33.141Z,19.77
2022-12-19T07:48:07.213Z,19.87
2022-12-19T07:50:39.117Z,17.75
2022-12-19T07:53:12.202Z,17.52
2022-12-19T07:55:45.151Z,18.00
2022-12-19T07:58:19.776Z,18.70
2022-12-19T08:00:57.757Z,18.67
2022-12-19T08:03:29.760Z,16.40
2022-12-19T08:06:06.366Z,15.32
2022-12-19T08:08:38.801Z,6.30
2022-12-19T08:11:26.769Z,5.90
2022-12-19T08:13:58.699Z,6.03
2022-12-19T08:16:37.384Z,6.43
2022-12-19T08:19:25.989Z,6.05
2022-12-19T08:22:00.393Z,6.10
2022-12-19T08:24:32.803Z,5.53
2022-12-19T08:27:06.564Z,4.77
2022-12-19T08:29:39.132Z,5.03
2022-12-19T08:32:17.127Z,5.28
2022-12-19T08:34:52.757Z,5.50
2022-12-19T08:37:25.752Z,6.85
2022-12-19T08:39:58.043Z,5.53
2022-12-19T08:42:31.288Z,5.95
2022-12-19T08:45:03.777Z,5.70
2022-12-19T08:47:36.259Z,6.15
2022-12-19T08:50:09.013Z,5.72
2022-12-19T08:52:41.185Z,5.67
2022-12-19T08:55:13.942Z,5.80
2022-12-19T08:57:46.262Z,6.18
2022-12-19T09:00:18.345Z,5.93
2022-12-19T09:02:52.088Z,5.68
2022-12-19T09:06:04.371Z,5.60
2022-12-19T09:08:16.847Z,5.28
2022-12-19T09:10:49.260Z,4.90
2022-12-19T09:13:22.540Z,4.47
2022-12-19T09:16:07.836Z,4.63
2022-12-19T09:18:46.609Z,4.83
2022-12-19T09:21:24.857Z,4.28
2022-12-19T09:24:07.045Z,4.10
2022-12-19T09:26:42.168Z,4.10
2022-12-19T09:29:20.328Z,3.97
2022-12-19T09:31:56.305Z,4.80
2022-12-19T09:34:38.376Z,5.22
2022-12-19T09:37:16.424Z,4.95
2022-12-19T09:39:49.564Z,5.28
2022-12-19T09:42:49.791Z,4.93
2022-12-19T09:46:16.340Z,4.43
2022-12-19T09:48:55.592Z,5.10
2022-12-19T09:52:11.590Z,5.40
2022-12-19T09:54:54.994Z,4.85
2022-12-19T09:57:56.618Z,4.95
2022-12-19T10:00:36.505Z,4.70
2022-12-19T10:03:26.291Z,4.05
2022-12-19T10:07:12.891Z,4.10
2022-12-19T10:09:45.342Z,3.88
2022-12-19T10:12:38.647Z,4.20
2022-12-19T10:14:49.444Z,4.85
2022-12-19T10:17:30.478Z,5.35
2022-12-19T10:20:34.208Z,5.65
2022-12-19T10:24:11.621Z,5.80
2022-12-19T10:26:52.250Z,5.38
2022-12-19T10:29:42.422Z,5.10
2022-12-19T10:32:36.794Z,6.00
2022-12-19T10:35:15.948Z,6.57
2022-12-19T10:37:59.937Z,6.22
2022-12-19T10:41:14.236Z,6.93
2022-12-19T10:44:07.166Z,6.40
2022-12-19T10:46:49.864Z,5.28
2022-12-19T10:49:26.671Z,5.20
2022-12-19T10:52:10.353Z,5.10
2022-12-19T10:54:44.320Z,4.88
2022-12-19T10:57:24.674Z,4.88
2022-12-19T11:00:17.008Z,5.40
2022-12-19T11:02:54.157Z,5.40
2022-12-19T11:05:50.652Z,5.75
2022-12-19T11:08:32.554Z,6.05
2022-12-19T11:11:57.985Z,6.20
2022-12-19T11:19:24.821Z,5.97
2022-12-19T11:22:47.627Z,5.82
2022-12-19T11:29:41.965Z,5.22
2022-12-19T11:29:44.433Z,5.30
2022-12-19T11:30:44.494Z,4.43
2022-12-19T11:30:47.264Z,5.10
2022-12-19T11:34:25.890Z,6.47
2022-12-19T11:37:21.363Z,6.15
2022-12-19T11:40:02.454Z,6.72
2022-12-19T11:43:41.552Z,6.97
2022-12-19T11:45:52.441Z,6.40
2022-12-19T11:48:45.933Z,6.10
2022-12-19T11:51:51.029Z,6.13
2022-12-19T11:54:37.966Z,5.82
2022-12-19T11:57:13.225Z,6.28
2022-12-19T11:59:47.322Z,5.65
2022-12-19T12:02:38.581Z,6.25
2022-12-19T12:05:36.780Z,5.93
2022-12-19T12:09:13.049Z,5.97
2022-12-19T12:18:35.938Z,5.22
2022-12-19T12:26:11.513Z,5.47
2022-12-19T12:31:09.105Z,5.03
2022-12-19T12:31:10.967Z,5.20
2022-12-19T12:31:39.471Z,5.65
2022-12-19T12:31:59.001Z,5.18
2022-12-19T12:35:41.440Z,5.30
2022-12-19T12:37:51.337Z,5.53
2022-12-19T12:39:18.061Z,5.43
2022-12-19T12:42:08.950Z,5.88
2022-12-19T12:44:46.109Z,7.57
2022-12-19T12:47:24.446Z,7.40
2022-12-19T12:50:17.837Z,6.68
2022-12-19T12:53:02.697Z,5.90
2022-12-19T12:55:43.335Z,6.53
2022-12-19T12:58:46.469Z,6.10
2022-12-19T13:01:30.372Z,6.63
2022-12-19T13:04:11.649Z,6.47
2022-12-19T13:06:50.560Z,6.63
2022-12-19T13:09:36.533Z,6.00
2022-12-19T13:12:47.007Z,6.18
2022-12-19T13:15:28.063Z,7.93
2022-12-19T13:18:14.531Z,5.88
2022-12-19T13:20:48.478Z,6.00
2022-12-19T13:23:37.735Z,6.30
2022-12-19T13:26:47.452Z,5.47
2022-12-19T13:30:04.058Z,6.28
2022-12-19T13:32:39.025Z,6.03
2022-12-19T13:36:26.331Z,7.10
2022-12-19T13:39:57.945Z,6.65
2022-12-19T13:42:01.312Z,6.82
2022-12-19T13:44:40.238Z,6.80
2022-12-19T13:47:17.665Z,8.25
2022-12-19T13:49:53.440Z,7.57
2022-12-19T13:52:25.540Z,7.63
2022-12-19T13:54:59.974Z,6.70
2022-12-19T13:57:32.961Z,23.30
2022-12-19T14:00:11.506Z,8.50
2022-12-19T14:02:57.489Z,7.68
2022-12-19T14:06:14.884Z,8.02
2022-12-19T14:08:27.392Z,7.05
2022-12-19T14:11:36.661Z,7.53
2022-12-19T14:14:27.628Z,8.05
2022-12-19T14:17:15.000Z,7.20
2022-12-19T14:19:52.085Z,7.53
2022-12-19T14:22:27.483Z,8.05
2022-12-19T14:25:45.209Z,7.25
2022-12-19T14:28:18.427Z,8.13
2022-12-19T14:34:27.116Z,7.28
2022-12-19T14:36:57.812Z,6.30
2022-12-19T14:39:35.605Z,6.65
2022-12-19T14:43:56.365Z,6.50
2022-12-19T14:53:10.811Z,5.75
2022-12-19T14:53:52.624Z,6.33
2022-12-19T14:54:29.063Z,6.22
2022-12-19T14:58:50.879Z,5.85
2022-12-19T15:01:07.625Z,6.45
2022-12-19T15:03:32.647Z,6.90
2022-12-19T15:07:05.078Z,5.10
2022-12-19T15:11:03.944Z,6.40
2022-12-19T15:13:47.263Z,5.47
2022-12-19T15:15:51.183Z,5.07
2022-12-19T15:18:34.406Z,5.17
2022-12-19T15:21:12.461Z,5.43
2022-12-19T15:23:46.126Z,5.72
2022-12-19T15:26:34.180Z,5.70
2022-12-19T15:29:14.139Z,5.97
2022-12-19T15:31:51.612Z,6.17
2022-12-19T15:34:46.363Z,5.22
2022-12-19T15:37:23.681Z,5.10
2022-12-19T15:39:55.588Z,5.43
2022-12-19T15:42:28.860Z,5.32
2022-12-19T15:45:02.817Z,6.30
2022-12-19T15:47:37.677Z,6.05
2022-12-19T15:50:24.856Z,5.82
2022-12-19T15:53:00.030Z,4.85
2022-12-19T15:55:32.426Z,5.60
2022-12-19T15:58:06.953Z,4.57
2022-12-19T16:00:39.977Z,4.20
2022-12-19T16:03:23.697Z,4.95
2022-12-19T16:05:57.248Z,5.57
2022-12-19T16:08:30.295Z,6.13
2022-12-19T16:11:02.568Z,5.57
2022-12-19T16:13:35.931Z,4.97
2022-12-19T16:16:15.537Z,5.53
2022-12-19T16:18:48.616Z,5.05
2022-12-19T16:21:33.617Z,5.15
2022-12-19T16:24:07.579Z,5.67
2022-12-19T16:26:40.478Z,5.30
2022-12-19T16:29:23.528Z,5.60
2022-12-19T16:31:57.262Z,5.03
2022-12-19T16:34:29.761Z,5.00
2022-12-19T16:37:02.979Z,5.63
2022-12-19T16:39:34.930Z,5.40
2022-12-19T16:42:18.559Z,5.53
2022-12-19T16:44:50.960Z,5.75
2022-12-19T16:47:23.838Z,5.55
2022-12-19T16:52:50.183Z,5.50
2022-12-19T16:55:24.584Z,5.85
2022-12-19T16:57:58.503Z,5.43
2022-12-19T17:00:32.180Z,5.13
2022-12-19T17:03:36.830Z,6.40
2022-12-19T17:06:18.471Z,5.38
2022-12-19T17:08:51.400Z,5.88
2022-12-19T17:14:23.962Z,5.57
2022-12-19T17:16:58.439Z,6.07
2022-12-19T17:19:38.475Z,4.97
2022-12-19T17:22:19.097Z,5.32
2022-12-19T17:24:52.230Z,5.68
2022-12-19T17:27:26.193Z,5.32
2022-12-19T17:29:58.593Z,5.40
2022-12-19T17:32:31.400Z,5.15
2022-12-19T17:35:03.902Z,4.57
2022-12-19T17:37:36.815Z,4.35
2022-12-19T17:40:31.191Z,4.65
2022-12-19T17:43:03.681Z,5.00
2022-12-19T17:45:36.173Z,5.60
2022-12-19T17:48:36.980Z,5.60
2022-12-19T17:51:12.207Z,5.85
2022-12-19T17:53:45.553Z,5.15
2022-12-19T17:56:20.901Z,5.67
2022-12-19T17:58:55.653Z,4.70
2022-12-19T18:01:29.819Z,4.20
2022-12-19T18:04:02.835Z,3.75
2022-12-19T18:06:36.507Z,4.38
2022-12-19T18:09:22.489Z,4.17
2022-12-19T18:11:55.822Z,4.13
2022-12-19T18:14:28.112Z,4.07
2022-12-19T18:17:01.827Z,4.68
2022-12-19T18:19:34.704Z,4.07
2022-12-19T18:22:14.809Z,4.13
2022-12-19T18:24:46.817Z,4.35
2022-12-19T18:27:19.646Z,4.70
2022-12-19T18:29:51.526Z,6.40
2022-12-19T18:32:25.030Z,6.13
2022-12-19T18:34:57.955Z,6.07
2022-12-19T18:37:29.895Z,6.78
2022-12-19T18:40:02.674Z,6.43
2022-12-19T18:42:35.620Z,6.10
2022-12-19T18:45:13.344Z,6.00
2022-12-19T18:47:53.867Z,5.10
2022-12-19T18:50:27.694Z,5.85
2022-12-19T18:53:01.516Z,4.97
2022-12-19T18:55:33.415Z,6.28
2022-12-19T18:58:06.191Z,6.13
2022-12-19T19:00:39.643Z,5.03
2022-12-19T19:03:19.732Z,5.80
2022-12-19T19:05:52.804Z,5.10
2022-12-19T19:08:34.681Z,4.60
2022-12-19T19:11:20.641Z,5.28
2022-12-19T19:13:53.189Z,4.53
2022-12-19T19:16:27.658Z,4.57
2022-12-19T19:19:00.949Z,4.47
2022-12-19T19:21:36.298Z,4.57
2022-12-19T19:24:21.499Z,4.80
2022-12-19T19:26:53.504Z,4.40
2022-12-19T19:29:26.174Z,5.20
2022-12-19T19:31:58.480Z,4.72
2022-12-19T19:34:35.359Z,4.80
2022-12-19T19:37:10.196Z,3.92
2022-12-19T19:39:42.680Z,5.00
2022-12-19T19:42:19.045Z,5.10
2022-12-19T19:44:50.907Z,6.30
2022-12-19T19:47:28.759Z,6.63
2022-12-19T19:50:00.698Z,6.35
2022-12-19T19:52:33.993Z,6.97
2022-12-19T19:55:08.389Z,5.70
2022-12-19T19:57:41.286Z,5.90
2022-12-19T20:00:13.905Z,4.53
2022-12-19T20:02:46.577Z,3.30
2022-12-19T20:05:18.722Z,4.20
2022-12-19T20:07:53.782Z,4.20
2022-12-19T20:10:25.650Z,4.50
2022-12-19T20:13:01.559Z,5.00
2022-12-19T20:15:34.211Z,4.57
2022-12-19T20:18:06.999Z,5.40
2022-12-19T20:20:39.032Z,5.10
2022-12-19T20:23:11.748Z,5.10
2022-12-19T20:25:44.558Z,5.00
2022-12-19T20:28:17.778Z,5.53
2022-12-19T20:30:51.248Z,6.30
2022-12-19T20:33:23.508Z,5.95
2022-12-19T20:35:57.850Z,5.85
2022-12-19T20:38:30.165Z,5.00
2022-12-19T20:41:03.450Z,5.38
2022-12-19T20:43:38.639Z,5.27
2022-12-19T20:46:20.755Z,5.22
2022-12-19T20:48:53.073Z,5.75
2022-12-19T20:51:25.812Z,5.75
2022-12-19T20:53:57.781Z,6.65
2022-12-19T20:56:30.121Z,6.20
2022-12-19T20:59:02.314Z,6.22
2022-12-19T21:01:35.112Z,5.80
2022-12-19T21:04:08.030Z,5.05
2022-12-19T21:06:41.705Z,5.75
2022-12-19T21:09:14.675Z,6.23
2022-12-19T21:11:47.006Z,6.93
2022-12-19T21:14:19.708Z,5.43
2022-12-19T21:16:52.026Z,5.85
2022-12-19T21:19:24.368Z,5.38
2022-12-19T21:21:56.273Z,5.13
2022-12-19T21:24:29.680Z,4.53
2022-12-19T21:27:01.571Z,5.75
2022-12-19T21:29:34.328Z,5.40
2022-12-19T21:32:06.637Z,5.10
2022-12-19T21:34:38.541Z,5.30
2022-12-19T21:37:11.843Z,4.72
2022-12-19T21:39:43.749Z,5.03
2022-12-19T21:42:16.465Z,4.40
2022-12-19T21:44:48.412Z,4.20
2022-12-19T21:47:21.680Z,3.77
2022-12-19T21:49:54.188Z,4.40
2022-12-19T21:55:20.021Z,3.22
2022-12-19T21:57:52.814Z,3.50
2022-12-19T22:00:28.466Z,4.07
2022-12-19T22:03:14.130Z,3.13
2022-12-19T22:05:46.987Z,3.40
2022-12-19T22:08:19.740Z,3.78
2022-12-19T22:10:51.638Z,3.28
2022-12-19T22:13:25.531Z,3.77
2022-12-19T22:16:02.247Z,3.90
2022-12-19T22:18:37.637Z,3.65
2022-12-19T22:21:14.849Z,3.70
2022-12-19T22:23:46.947Z,3.95
2022-12-19T22:26:23.067Z,3.93
2022-12-19T22:28:57.341Z,4.30
2022-12-19T22:31:32.873Z,4.65
2022-12-19T22:34:11.764Z,4.30
2022-12-19T22:36:45.863Z,4.63
2022-12-19T22:39:20.534Z,3.73
2022-12-19T22:41:53.335Z,4.03
2022-12-19T22:44:25.650Z,4.57
2022-12-19T22:46:57.976Z,4.68
2022-12-19T22:49:29.894Z,3.92
2022-12-19T22:52:02.652Z,4.17
2022-12-19T22:54:34.544Z,4.57
2022-12-19T22:57:07.630Z,4.65
2022-12-19T22:59:40.402Z,4.43
2022-12-19T23:02:13.405Z,4.40
2022-12-19T23:04:45.907Z,4.10
2022-12-19T23:07:17.807Z,4.00
2022-12-19T23:09:50.757Z,3.85
2022-12-19T23:12:22.684Z,3.80
2022-12-19T23:14:55.400Z,4.28
2022-12-19T23:17:27.323Z,4.88
2022-12-19T23:19:59.705Z,5.00
2022-12-19T23:22:32.437Z,4.97
2022-12-19T23:25:05.880Z,4.68
2022-12-19T23:27:38.209Z,5.25
2022-12-19T23:30:11.325Z,5.10
2022-12-19T23:32:50.288Z,4.97
2022-12-19T23:35:23.589Z,4.60
2022-12-19T23:37:56.024Z,4.43
2022-12-19T23:40:28.011Z,4.30
2022-12-19T23:43:00.434Z,4.77
2022-12-19T23:45:32.524Z,4.20
2022-12-19T23:48:05.940Z,3.75
2022-12-19T23:50:37.818Z,3.65
2022-12-19T23:53:10.640Z,3.72
2022-12-19T23:55:42.512Z,3.87
2022-12-19T23:58:22.309Z,3.53
